Time;durP1;ratioP1;P1;durP2;ratioP2;P2;SDS_P1;SDS_P2;PMS_P1;PMS_P2;Temp;Humidity;BMP_temperature;BMP_pressure;BME280_temperature;BME280_humidity;BME280_pressure;Samples;Min_cycle;Max_cycle;Signal;HPM_P1;HPM_P2
2021/03/05 00:02:16;344951.00;1.15;595.18;84827.00;0.28;147.37;;;;;14.80;1.00;;;;;;2257265;61;960;-89
2021/03/05 00:04:42;607714.00;2.03;1047.54;107942.00;0.36;187.28;;;;;14.40;1.00;;;;;;2259831;61;967;-89
2021/03/05 00:07:09;328135.00;1.09;566.28;86303.00;0.29;149.92;;;;;13.90;1.00;;;;;;2253195;61;970;-87
2021/03/05 00:09:35;541646.00;1.81;933.56;75809.00;0.25;131.80;;;;;13.80;1.00;;;;;;2255779;61;1360;-90
2021/03/05 00:12:02;450611.00;1.50;776.83;83669.00;0.28;145.37;;;;;14.00;1.00;;;;;;2249253;61;940;-88
2021/03/05 00:14:29;409911.00;1.37;706.84;81878.00;0.27;142.28;;;;;14.00;1.00;;;;;;2255890;61;1995;-87
2021/03/05 00:16:56;377179.00;1.26;650.58;104817.00;0.35;181.89;;;;;13.70;1.00;;;;;;2255872;61;1033;-88
2021/03/05 00:19:23;532079.00;1.77;917.07;97601.00;0.33;169.43;;;;;13.60;1.00;;;;;;2255890;61;1484;-88
2021/03/05 00:21:49;425859.00;1.42;734.26;82876.00;0.28;144.00;;;;;13.60;1.00;;;;;;2253350;61;1087;-87
2021/03/05 00:24:16;355256.00;1.18;612.90;77090.00;0.26;134.01;;;;;13.10;1.00;;;;;;2263821;61;1035;-88
2021/03/05 00:29:18;354327.00;1.18;611.30;85995.00;0.29;149.39;;;;;12.00;1.00;;;;;;2278515;61;1315;-87
2021/03/05 00:36:42;738234.00;2.46;1273.61;87160.00;0.29;151.40;;;;;11.90;1.00;;;;;;2265983;61;1442;-89
2021/03/05 00:39:08;605641.00;2.02;1043.96;108104.00;0.36;187.56;;;;;12.60;1.00;;;;;;2259801;61;1447;-88
2021/03/05 00:41:35;580802.00;1.94;1001.08;85167.00;0.28;147.96;;;;;13.10;1.00;;;;;;2259915;61;1036;-89
2021/03/05 00:44:02;495738.00;1.65;854.49;74970.00;0.25;130.35;;;;;13.40;1.00;;;;;;2253207;61;991;-87
2021/03/05 00:46:28;423543.00;1.41;730.28;85274.00;0.28;148.15;;;;;13.60;1.00;;;;;;2259842;61;1141;-88
2021/03/05 00:48:55;461413.00;1.54;795.42;87384.00;0.29;151.79;;;;;13.90;1.00;;;;;;2259718;61;1396;-88
2021/03/05 00:51:22;576625.00;1.92;993.88;133183.00;0.44;230.82;;;;;14.00;1.00;;;;;;2259872;61;1027;-88
2021/03/05 00:53:49;502380.00;1.67;865.92;81406.00;0.27;141.47;;;;;14.00;1.00;;;;;;2253196;61;998;-88
2021/03/05 00:56:16;370172.00;1.23;638.53;81680.00;0.27;141.94;;;;;13.90;1.00;;;;;;2252182;61;1948;-90
2021/03/05 00:58:42;369031.00;1.23;636.57;72637.00;0.24;126.32;;;;;13.50;1.00;;;;;;2259672;61;1306;-89
2021/03/05 01:01:09;457051.00;1.52;787.91;86010.00;0.29;149.42;;;;;13.10;1.00;;;;;;2259802;61;946;-87
2021/03/05 01:03:37;365949.00;1.22;631.27;92472.00;0.31;160.58;;;;;13.20;1.00;;;;;;2253163;61;961;-89
2021/03/05 01:06:04;466223.00;1.55;803.69;96700.00;0.32;167.88;;;;;13.20;1.00;;;;;;2253170;61;1079;-88
2021/03/05 01:08:31;227594.00;0.76;393.41;0.00;0.00;0.62;;;;;13.60;1.00;;;;;;2253792;61;1413;-89
2021/03/05 01:10:58;234208.00;0.78;404.79;0.00;0.00;0.62;;;;;14.00;1.00;;;;;;2253882;61;1029;-87
2021/03/05 01:13:24;239960.00;0.80;414.68;0.00;0.00;0.62;;;;;14.10;1.00;;;;;;2257101;61;980;-88
2021/03/05 01:15:51;323172.00;1.08;557.75;0.00;0.00;0.62;;;;;14.30;1.00;;;;;;2254379;61;2013;-88
2021/03/05 01:18:18;315225.00;1.05;544.09;43342.00;0.14;75.67;;;;;14.30;1.00;;;;;;2264940;61;1435;-89
2021/03/05 01:20:44;207752.00;0.69;359.27;0.00;0.00;0.62;;;;;14.30;1.00;;;;;;2264939;61;1003;-88
2021/03/05 01:23:13;283972.00;0.95;490.37;13040.00;0.04;23.22;;;;;14.20;1.00;;;;;;2264938;61;682;-88
2021/03/05 01:25:40;293550.00;0.98;506.83;0.00;0.00;0.62;;;;;14.00;1.00;;;;;;2256391;61;914;-88
2021/03/05 01:28:07;452012.00;1.51;779.24;0.00;0.00;0.62;;;;;13.70;1.00;;;;;;2253038;61;1433;-89
2021/03/05 01:30:34;397156.00;1.32;684.92;0.00;0.00;0.62;;;;;13.40;1.00;;;;;;2252385;61;967;-87
2021/03/05 01:33:01;592891.00;1.98;1021.95;0.00;0.00;0.62;;;;;12.80;1.00;;;;;;2249137;61;1084;-88
2021/03/05 01:35:29;288028.00;0.96;497.34;0.00;0.00;0.62;;;;;11.90;1.00;;;;;;2246298;61;1920;-89
2021/03/05 01:37:55;460369.00;1.53;793.62;15638.00;0.05;27.72;;;;;11.20;1.00;;;;;;2260345;61;1293;-88
2021/03/05 01:40:27;503354.00;1.68;867.60;0.00;0.00;0.62;;;;;10.70;1.00;;;;;;2260355;61;1052;-89
2021/03/05 01:42:53;149918.00;0.50;259.67;0.00;0.00;0.62;;;;;10.50;1.00;;;;;;2261547;61;974;-89
2021/03/05 01:45:23;230801.00;0.77;398.93;0.00;0.00;0.62;;;;;10.50;1.00;;;;;;2268427;61;967;-87
2021/03/05 01:47:51;125665.00;0.42;217.85;0.00;0.00;0.62;;;;;10.70;1.00;;;;;;2261766;61;1481;-89
2021/03/05 01:50:20;218963.00;0.73;378.56;0.00;0.00;0.62;;;;;10.90;1.00;;;;;;2264266;61;1019;-88
2021/03/05 01:52:48;229867.00;0.77;397.32;0.00;0.00;0.62;;;;;10.10;1.00;;;;;;2263985;61;1040;-88
2021/03/05 01:55:15;222152.00;0.74;384.05;0.00;0.00;0.62;;;;;9.80;1.00;;;;;;2256199;61;2003;-86
2021/03/05 01:57:42;496636.00;1.66;856.03;0.00;0.00;0.62;;;;;10.20;1.00;;;;;;2256247;61;1025;-87
2021/03/05 02:00:11;261067.00;0.87;450.98;0.00;0.00;0.62;;;;;10.30;1.00;;;;;;2256210;61;1400;-87
2021/03/05 02:02:38;293910.00;0.98;507.45;0.00;0.00;0.62;;;;;10.20;1.00;;;;;;2256183;61;984;-87
2021/03/05 02:05:05;243551.00;0.81;420.86;0.00;0.00;0.62;;;;;10.30;1.00;;;;;;2256346;61;981;-86
2021/03/05 02:07:32;410494.00;1.37;707.85;0.00;0.00;0.62;;;;;10.20;1.00;;;;;;2260111;61;1002;-88
2021/03/05 02:09:58;415511.00;1.39;716.47;0.00;0.00;0.62;;;;;9.80;1.00;;;;;;2250346;61;1405;-86
2021/03/05 02:12:25;279196.00;0.93;482.16;0.00;0.00;0.62;;;;;9.20;1.00;;;;;;2261381;61;1042;-89
2021/03/05 02:14:52;546607.00;1.82;942.11;79899.00;0.27;138.86;;;;;8.70;1.00;;;;;;2268739;61;1983;-89
2021/03/05 02:17:26;643371.00;2.14;1109.17;86363.00;0.29;150.03;;;;;8.10;1.00;;;;;;2268716;61;974;-86
2021/03/05 02:20:03;293510.00;0.98;506.76;0.00;0.00;0.62;;;;;8.10;1.00;;;;;;2264750;61;1429;-86
2021/03/05 02:23:03;223279.00;0.74;385.99;0.00;0.00;0.62;;;;;8.30;1.00;;;;;;2268708;61;1011;-85
2021/03/05 02:26:06;46106.00;0.15;80.45;0.00;0.00;0.62;;;;;7.90;1.00;;;;;;2255622;61;1031;-87
2021/03/05 02:29:00;277794.00;0.93;479.74;0.00;0.00;0.62;;;;;8.50;1.00;;;;;;2255916;61;1265;-86
2021/03/05 02:31:32;201202.00;0.67;347.99;0.00;0.00;0.62;;;;;9.50;1.00;;;;;;2249520;61;994;-86
2021/03/05 02:34:03;23492.00;0.08;41.32;0.00;0.00;0.62;;;;;9.40;1.00;;;;;;2249623;61;983;-87
2021/03/05 02:36:37;18020.00;0.06;31.84;0.00;0.00;0.62;;;;;9.60;1.00;;;;;;2252116;61;2017;-86
2021/03/05 02:39:12;32445.00;0.11;56.81;0.00;0.00;0.62;;;;;9.50;1.00;;;;;;2245514;61;1346;-86
2021/03/05 02:41:42;168956.00;0.56;292.47;89555.00;0.30;155.54;;;;;10.00;1.00;;;;;;2245650;61;946;-86
2021/03/05 02:44:12;0.00;0.00;0.62;0.00;0.00;0.62;;;;;10.30;1.00;;;;;;2248681;61;1008;-87
2021/03/05 02:46:42;120660216.00;402.20;71162816.00;0.00;0.00;0.62;;;;;9.80;1.00;;;;;;2256148;61;970;-85
2021/03/05 02:49:15;37529.00;0.13;65.61;0.00;0.00;0.62;;;;;8.80;1.00;;;;;;2252728;61;1459;-85
2021/03/05 02:51:46;70493.00;0.23;122.61;0.00;0.00;0.62;;;;;8.10;1.00;;;;;;2249596;61;1044;-87
2021/03/05 02:54:17;243612.00;0.81;420.96;91568.00;0.31;159.02;;;;;7.60;1.00;;;;;;2252540;61;970;-88
2021/03/05 02:56:46;245618.00;0.82;424.41;79032.00;0.26;137.37;;;;;7.70;1.00;;;;;;2257506;61;1920;-88
2021/03/05 02:59:16;396162.00;1.32;683.21;99171.00;0.33;172.14;;;;;7.50;1.00;;;;;;2264050;61;1293;-86
2021/03/05 03:01:47;68655.00;0.23;119.44;0.00;0.00;0.62;;;;;7.00;1.00;;;;;;2258271;61;984;-87
2021/03/05 03:04:14;224033.00;0.75;387.28;84489.00;0.28;146.79;;;;;6.90;1.00;;;;;;2268612;61;1038;-85
2021/03/05 03:06:43;203187.00;0.68;351.41;87363.00;0.29;151.75;;;;;6.70;1.00;;;;;;2257553;61;1006;-84
2021/03/05 03:09:13;238439.00;0.79;412.07;77126.00;0.26;134.07;;;;;7.00;1.00;;;;;;2264147;61;1349;-84
2021/03/05 03:11:42;289958.00;0.97;500.66;79686.00;0.27;138.49;;;;;7.10;1.00;;;;;;2264774;61;988;-85
2021/03/05 03:14:09;295208.00;0.98;509.68;69171.00;0.23;120.33;;;;;7.70;1.00;;;;;;2259980;61;1112;-87
2021/03/05 03:16:38;53422.00;0.18;93.10;0.00;0.00;0.62;;;;;7.80;1.00;;;;;;2257371;61;1927;-86
2021/03/05 03:19:10;234373.00;0.78;405.07;79524.00;0.27;138.22;;;;;7.80;1.00;;;;;;2256705;61;1370;-85
2021/03/05 03:21:37;232410.00;0.77;401.69;83827.00;0.28;145.65;;;;;8.30;1.00;;;;;;2260121;61;1014;-89
2021/03/05 03:24:06;261005.00;0.87;450.88;83397.00;0.28;144.90;;;;;8.80;1.00;;;;;;2257415;61;994;-90
2021/03/05 03:26:35;201801.00;0.67;349.02;92813.00;0.31;161.16;;;;;8.30;1.00;;;;;;2256717;61;1167;-89
2021/03/05 03:29:02;292036.00;0.97;504.23;84162.00;0.28;146.23;;;;;8.50;1.00;;;;;;2256700;61;1411;-87
2021/03/05 03:31:28;280842.00;0.94;484.99;78727.00;0.26;136.84;;;;;8.70;1.00;;;;;;2258105;61;1013;-89
2021/03/05 03:33:55;271302.00;0.90;468.58;80149.00;0.27;139.29;;;;;8.70;1.00;;;;;;2268479;61;1066;-90
2021/03/05 03:36:23;249863.00;0.83;431.72;115731.00;0.39;200.72;;;;;8.40;1.00;;;;;;2261409;61;2014;-89
2021/03/05 03:38:50;368336.00;1.23;635.38;82424.00;0.27;143.22;;;;;8.50;1.00;;;;;;2264698;61;1415;-87
2021/03/05 03:41:17;163293.00;0.54;282.71;72418.00;0.24;125.94;;;;;8.00;1.00;;;;;;2268482;61;1092;-87
2021/03/05 03:43:45;92579.00;0.31;160.76;21509.00;0.07;37.88;;;;;7.90;1.00;;;;;;2261472;61;994;-88
2021/03/05 03:46:12;215331.00;0.72;372.31;86699.00;0.29;150.61;;;;;8.10;1.00;;;;;;2268493;61;1029;-86
2021/03/05 03:48:46;206485.00;0.69;357.09;90410.00;0.30;157.02;;;;;8.40;1.00;;;;;;2262239;61;1481;-86
2021/03/05 03:51:17;237445.00;0.79;410.36;83846.00;0.28;145.68;;;;;8.50;1.00;;;;;;2263933;61;1012;-89
2021/03/05 03:53:48;195435.00;0.65;338.07;82198.00;0.27;142.83;;;;;8.30;1.00;;;;;;2263997;61;1020;-88
2021/03/05 03:56:16;208947.00;0.70;361.32;76098.00;0.25;132.30;;;;;7.30;1.00;;;;;;2263997;61;1932;-87
2021/03/05 03:58:48;326003.00;1.09;562.62;83700.00;0.28;145.43;;;;;6.90;1.00;;;;;;2263991;61;1434;-90
2021/03/05 04:01:17;306034.00;1.02;528.29;61238.00;0.20;106.62;;;;;6.80;1.00;;;;;;2257294;61;1028;-87
2021/03/05 04:03:49;347407.00;1.16;599.40;82395.00;0.27;143.17;;;;;7.00;1.00;;;;;;2263940;61;1014;-87
2021/03/05 04:06:21;266537.00;0.89;460.39;75850.00;0.25;131.87;;;;;7.50;1.00;;;;;;2265454;61;975;-89
2021/03/05 04:08:51;231340.00;0.77;399.85;66933.00;0.22;116.46;;;;;7.90;1.00;;;;;;2259856;61;1462;-88
2021/03/05 04:11:19;335917.00;1.12;579.66;91761.00;0.31;159.35;;;;;7.90;1.00;;;;;;2259854;61;998;-89
2021/03/05 04:13:47;522125.00;1.74;899.93;91484.00;0.30;158.87;;;;;7.90;1.00;;;;;;2253369;61;1019;-87
2021/03/05 04:16:13;627731.00;2.09;1082.13;79379.00;0.26;137.96;;;;;8.40;1.00;;;;;;2259874;61;1974;-88
2021/03/05 04:18:41;338876.00;1.13;584.74;73294.00;0.24;127.45;;;;;9.00;1.00;;;;;;2251815;61;1321;-90
2021/03/05 04:21:16;328380.00;1.09;566.70;90555.00;0.30;157.27;;;;;9.20;1.00;;;;;;2251947;61;1033;-86
2021/03/05 04:23:42;415444.00;1.38;716.36;74567.00;0.25;129.65;;;;;9.50;1.00;;;;;;2251825;61;992;-85
2021/03/05 04:26:09;387377.00;1.29;668.11;89246.00;0.30;155.01;;;;;9.90;1.00;;;;;;2251860;61;1033;-86
2021/03/05 04:28:36;411384.00;1.37;709.38;98167.00;0.33;170.41;;;;;10.00;1.00;;;;;;2248488;61;1376;-88
2021/03/05 04:31:02;314946.00;1.05;543.61;88934.00;0.30;154.47;;;;;10.40;1.00;;;;;;2251752;61;1041;-86
2021/03/05 04:33:29;419116.00;1.40;722.67;83558.00;0.28;145.18;;;;;10.90;1.00;;;;;;2256803;61;1045;-86
2021/03/05 04:35:56;267582.00;0.89;462.19;83735.00;0.28;145.49;;;;;11.30;1.00;;;;;;2256423;61;1978;-86
2021/03/05 04:38:22;386790.00;1.29;667.10;85426.00;0.28;148.41;;;;;11.50;1.00;;;;;;2256407;61;1350;-87
2021/03/05 04:40:49;282669.00;0.94;488.13;90094.00;0.30;156.47;;;;;11.50;1.00;;;;;;2253613;61;1073;-86
2021/03/05 04:43:16;486831.00;1.62;839.15;72255.00;0.24;125.66;;;;;11.80;1.00;;;;;;2251690;61;972;-87
2021/03/05 04:45:43;364219.00;1.21;628.30;62799.00;0.21;109.32;;;;;12.20;1.00;;;;;;2251880;61;1039;-87
2021/03/05 04:48:10;442530.00;1.48;762.93;80936.00;0.27;140.65;;;;;12.30;1.00;;;;;;2245197;61;1370;-87
2021/03/05 04:50:37;332489.00;1.11;573.76;76364.00;0.25;132.76;;;;;12.40;1.00;;;;;;2248450;61;979;-87
2021/03/05 04:53:05;328892.00;1.10;567.58;72751.00;0.24;126.51;;;;;12.20;1.00;;;;;;2252293;61;1036;-87
2021/03/05 04:55:33;281493.00;0.94;486.10;79350.00;0.26;137.91;;;;;12.10;1.00;;;;;;2255811;61;1914;-87
2021/03/05 04:57:59;303901.00;1.01;524.63;80242.00;0.27;139.46;;;;;11.80;1.00;;;;;;2255799;61;1500;-86
2021/03/05 05:00:27;277310.00;0.92;478.91;74508.00;0.25;129.55;;;;;12.00;1.00;;;;;;2252800;61;956;-86
2021/03/05 05:02:53;431889.00;1.44;744.63;72772.00;0.24;126.55;;;;;12.10;1.00;;;;;;2256383;61;1205;-88
2021/03/05 05:05:21;412603.00;1.38;711.47;78992.00;0.26;137.30;;;;;12.20;1.00;;;;;;2259825;61;952;-88
2021/03/05 05:07:47;237912.00;0.79;411.16;83697.00;0.28;145.42;;;;;12.60;1.00;;;;;;2263739;61;975;-86
2021/03/05 05:10:14;463052.00;1.54;798.24;83104.00;0.28;144.40;;;;;12.80;1.00;;;;;;2251777;61;1019;-88
2021/03/05 05:12:41;465519.00;1.55;802.48;80059.00;0.27;139.14;;;;;12.90;1.00;;;;;;2254902;61;1054;-89
2021/03/05 05:15:08;116781920.00;389.27;64513304.00;78287.00;0.26;136.08;;;;;13.10;1.00;;;;;;2255677;61;1920;-88
2021/03/05 05:17:36;118277344.00;394.26;67025788.00;84655.00;0.28;147.08;;;;;13.00;1.00;;;;;;2249565;61;955;-88
2021/03/05 05:20:05;510666.00;1.70;880.19;88021.00;0.29;152.89;;;;;13.00;1.00;;;;;;2259573;61;1389;-88
2021/03/05 05:22:34;429748.00;1.43;740.95;75466.00;0.25;131.20;;;;;13.00;1.00;;;;;;2251610;61;931;-88
2021/03/05 05:25:00;366302.00;1.22;631.88;79030.00;0.26;137.36;;;;;12.10;1.00;;;;;;2247092;61;1059;-88
2021/03/05 05:27:27;546259.00;1.82;941.51;171890.00;0.57;297.52;;;;;11.50;1.00;;;;;;2244989;61;1042;-87
2021/03/05 05:29:53;319318.00;1.06;551.13;87580.00;0.29;152.13;;;;;11.60;1.00;;;;;;2252113;61;1403;-87
2021/03/05 05:32:20;341247.00;1.14;588.82;80359.00;0.27;139.66;;;;;11.50;1.00;;;;;;2252219;61;1122;-88
2021/03/05 05:34:47;392636.00;1.31;677.15;99805.00;0.33;173.24;;;;;11.50;1.00;;;;;;2251531;61;1924;-88
2021/03/05 05:37:14;412465.00;1.37;711.23;91534.00;0.31;158.96;;;;;11.20;1.00;;;;;;2251627;61;1081;-87
2021/03/05 05:39:40;376851.00;1.26;650.01;73989.00;0.25;128.65;;;;;10.50;1.00;;;;;;2240555;61;1332;-88
2021/03/05 05:42:08;300353.00;1.00;518.53;83662.00;0.28;145.36;;;;;10.50;1.00;;;;;;2239669;61;1094;-87
2021/03/05 05:44:35;282176.00;0.94;487.28;81253.00;0.27;141.20;;;;;10.90;1.00;;;;;;2239741;61;1093;-88
2021/03/05 05:47:02;290799.00;0.97;502.10;79416.00;0.26;138.03;;;;;11.20;1.00;;;;;;2236620;62;1064;-86
2021/03/05 05:49:29;411342.00;1.37;709.30;87361.00;0.29;151.75;;;;;11.50;1.00;;;;;;2240262;61;1392;-88
2021/03/05 05:52:04;356627.00;1.19;615.25;75821.00;0.25;131.82;;;;;11.70;1.00;;;;;;2244213;61;1002;-85
2021/03/05 05:54:33;316061.00;1.05;545.53;81006.00;0.27;140.77;;;;;12.10;1.00;;;;;;2247872;61;1066;-84
2021/03/05 05:57:01;281513.00;0.94;486.14;77726.00;0.26;135.11;;;;;11.90;1.00;;;;;;2248929;61;1934;-83
2021/03/05 05:59:28;469339.00;1.56;809.05;82707.00;0.28;143.71;;;;;11.90;1.00;;;;;;2253106;61;1320;-87
2021/03/05 06:01:55;410718.00;1.37;708.23;81588.00;0.27;141.78;;;;;11.80;1.00;;;;;;2256316;61;997;-89
2021/03/05 06:04:23;447456.00;1.49;771.41;76403.00;0.25;132.82;;;;;11.30;1.00;;;;;;2249128;61;959;-88
2021/03/05 06:06:49;375630.00;1.25;647.91;81512.00;0.27;141.65;;;;;10.90;1.00;;;;;;2261743;61;1001;-88
2021/03/05 06:09:17;391291.00;1.30;674.83;75071.00;0.25;130.52;;;;;10.20;1.00;;;;;;2264929;61;1328;-89
2021/03/05 06:11:44;248455.00;0.83;429.29;84328.00;0.28;146.51;;;;;9.90;1.00;;;;;;2268782;61;1084;-88
2021/03/05 06:14:12;269295.00;0.90;465.13;86789.00;0.29;150.76;;;;;10.00;1.00;;;;;;2265030;61;1003;-87
2021/03/05 06:16:53;366588.00;1.22;632.37;86582.00;0.29;150.41;;;;;10.40;1.00;;;;;;2268643;61;1978;-88
2021/03/05 06:19:21;432433.00;1.44;745.57;0.00;0.00;0.62;;;;;10.60;1.00;;;;;;2268672;61;1328;-88
2021/03/05 06:21:50;466524.00;1.56;804.21;0.00;0.00;0.62;;;;;10.50;1.00;;;;;;2268542;61;1022;-89
2021/03/05 06:24:17;328229.00;1.09;566.44;69556.00;0.23;120.99;;;;;10.50;1.00;;;;;;2268715;61;1016;-88
2021/03/05 06:26:49;447434.00;1.49;771.37;79179.00;0.26;137.62;;;;;9.70;1.00;;;;;;2256060;61;1074;-88
2021/03/05 06:29:19;420516.00;1.40;725.08;80265.00;0.27;139.50;;;;;9.30;1.00;;;;;;2252728;61;1457;-87
2021/03/05 06:31:54;392909.00;1.31;677.62;111668.00;0.37;193.71;;;;;9.00;1.00;;;;;;2249449;61;1046;-89
2021/03/05 06:39:33;1135630.00;3.79;1974.26;79874.00;0.27;138.82;;;;;8.60;1.00;;;;;;2275321;61;1547;-87
2021/03/05 06:42:01;336572.00;1.12;580.78;0.00;0.00;0.62;;;;;8.20;1.00;;;;;;2274593;61;1374;-85
2021/03/05 06:44:28;378755.00;1.26;653.29;0.00;0.00;0.62;;;;;7.70;1.00;;;;;;2276673;61;951;-88
2021/03/05 06:46:54;393872.00;1.31;679.27;0.00;0.00;0.62;;;;;7.40;1.00;;;;;;2268156;61;1027;-86
2021/03/05 06:49:21;141459.00;0.47;245.09;0.00;0.00;0.62;;;;;7.40;1.00;;;;;;2263984;61;1404;-89
2021/03/05 06:51:53;383756.00;1.28;661.88;8145.00;0.03;14.74;;;;;7.30;1.00;;;;;;2256069;61;1060;-87
2021/03/05 06:54:20;372944.00;1.24;643.30;0.00;0.00;0.62;;;;;7.20;1.00;;;;;;2248075;61;1150;-89
2021/03/05 06:56:49;356859.00;1.19;615.65;0.00;0.00;0.62;;;;;7.30;1.00;;;;;;2248158;61;1932;-87
2021/03/05 06:59:18;152075.00;0.51;263.38;0.00;0.00;0.62;;;;;7.10;1.00;;;;;;2244052;61;1408;-87
2021/03/05 07:01:50;152754.00;0.51;264.55;0.00;0.00;0.62;;;;;7.40;1.00;;;;;;2237534;61;992;-88
2021/03/05 07:04:19;225376.00;0.75;389.59;0.00;0.00;0.62;;;;;6.90;1.00;;;;;;2244715;61;1013;-88
2021/03/05 07:06:46;215876.00;0.72;373.25;0.00;0.00;0.62;;;;;6.50;1.00;;;;;;2248989;61;1061;-86
2021/03/05 07:09:24;335680.00;1.12;579.25;0.00;0.00;0.62;;;;;6.20;1.00;;;;;;2254007;61;1467;-89
2021/03/05 07:11:53;366585.00;1.22;632.37;0.00;0.00;0.62;;;;;6.30;1.00;;;;;;2262405;61;1165;-87
2021/03/05 07:14:24;205543.00;0.69;355.46;0.00;0.00;0.62;;;;;6.40;1.00;;;;;;2255991;61;1003;-88
2021/03/05 07:16:51;130440.00;0.43;226.09;0.00;0.00;0.62;;;;;6.40;1.00;;;;;;2253282;61;2015;-90
2021/03/05 07:19:20;152577.00;0.51;264.25;0.00;0.00;0.62;;;;;6.40;1.00;;;;;;2264000;61;1316;-86
2021/03/05 07:21:48;156304.00;0.52;270.67;0.00;0.00;0.62;;;;;6.60;1.00;;;;;;2259964;61;994;-86
2021/03/05 07:24:16;228316.00;0.76;394.65;0.00;0.00;0.62;;;;;6.60;1.00;;;;;;2259901;61;958;-89
2021/03/05 07:26:44;224557.00;0.75;388.18;0.00;0.00;0.62;;;;;7.30;1.00;;;;;;2259928;61;991;-87
2021/03/05 07:29:19;97919.00;0.33;169.98;0.00;0.00;0.62;;;;;6.90;1.00;;;;;;2256647;61;1345;-90
2021/03/05 07:31:47;406190.00;1.35;700.45;0.00;0.00;0.62;;;;;6.80;1.00;;;;;;2254226;61;1488;-88
2021/03/05 07:34:18;282052.00;0.94;487.07;0.00;0.00;0.62;;;;;7.20;1.00;;;;;;2263994;61;1032;-88
2021/03/05 07:36:49;439548.00;1.47;757.81;0.00;0.00;0.62;;;;;7.70;1.00;;;;;;2266940;61;1916;-90
2021/03/05 07:39:23;290685.00;0.97;501.91;0.00;0.00;0.62;;;;;7.50;1.00;;;;;;2269728;61;1338;-90
2021/03/05 07:41:53;174410.00;0.58;301.86;0.00;0.00;0.62;;;;;7.90;1.00;;;;;;2276545;61;970;-90
2021/03/05 07:44:21;204516.00;0.68;353.70;0.00;0.00;0.62;;;;;7.70;1.00;;;;;;2269366;61;997;-89
2021/03/05 07:46:47;287990.00;0.96;497.27;0.00;0.00;0.62;;;;;7.60;1.00;;;;;;2272681;61;960;-89
2021/03/05 07:49:15;227004.00;0.76;392.39;0.00;0.00;0.62;;;;;8.10;1.00;;;;;;2272717;61;1400;-90
2021/03/05 07:51:43;372437.00;1.24;642.43;0.00;0.00;0.62;;;;;8.20;1.00;;;;;;2276473;61;927;-89
2021/03/05 07:54:10;269910.00;0.90;466.19;0.00;0.00;0.62;;;;;8.20;1.00;;;;;;2276506;61;1015;-89
2021/03/05 07:56:42;570615.00;1.90;983.51;85478.00;0.28;148.50;;;;;8.20;1.00;;;;;;2269344;61;2010;-88
2021/03/05 07:59:10;361331.00;1.20;623.34;85977.00;0.29;149.36;;;;;8.10;1.00;;;;;;2271779;61;1301;-88
2021/03/05 08:01:58;72792.00;0.24;126.58;0.00;0.00;0.62;;;;;7.90;1.00;;;;;;2271872;61;940;-88
2021/03/05 08:05:03;0.00;0.00;0.62;0.00;0.00;0.62;;;;;7.90;1.00;;;;;;2259740;61;979;-86
2021/03/05 08:07:31;408554.00;1.36;704.51;85301.00;0.28;148.19;;;;;7.50;1.00;;;;;;2244465;61;1025;-84
2021/03/05 08:09:58;324558.00;1.08;560.13;78402.00;0.26;136.28;;;;;7.50;1.00;;;;;;2247938;61;1369;-87
2021/03/05 08:12:34;173850.00;0.58;300.90;97616.00;0.33;169.46;;;;;7.50;1.00;;;;;;2243834;61;1031;-88
2021/03/05 08:15:22;269240.00;0.90;465.04;83875.00;0.28;145.73;;;;;7.60;1.00;;;;;;2243647;61;1924;-85
2021/03/05 08:17:50;86072.00;0.29;149.52;0.00;0.00;0.62;;;;;7.70;1.00;;;;;;2237870;62;994;-87
2021/03/05 08:20:52;24463.00;0.08;43.00;0.00;0.00;0.62;;;;;7.40;1.00;;;;;;2236626;62;1026;-87
2021/03/05 08:23:19;21503.00;0.07;37.87;0.00;0.00;0.62;;;;;7.10;1.00;;;;;;2239354;62;949;-88
2021/03/05 08:25:55;28544.00;0.10;50.06;0.00;0.00;0.62;;;;;7.20;1.00;;;;;;2239987;62;1123;-87
2021/03/05 08:28:46;0.00;0.00;0.62;0.00;0.00;0.62;;;;;7.30;1.00;;;;;;2228104;62;1386;-88
2021/03/05 08:31:37;241812.00;0.81;417.87;80640.00;0.27;140.14;;;;;7.40;1.00;;;;;;2231494;62;1011;-87
2021/03/05 08:34:29;14689.00;0.05;26.07;0.00;0.00;0.62;;;;;7.20;1.00;;;;;;2236096;62;1144;-86
2021/03/05 08:36:57;0.00;0.00;0.62;0.00;0.00;0.62;;;;;6.60;1.00;;;;;;2243402;62;1924;-86
2021/03/05 08:39:28;0.00;0.00;0.62;0.00;0.00;0.62;;;;;6.50;1.00;;;;;;2240489;62;1286;-88
2021/03/05 08:42:33;124376.00;0.41;215.63;25174.00;0.08;44.23;;;;;6.30;1.00;;;;;;2249848;61;1159;-87
2021/03/05 08:45:15;180781.00;0.60;312.83;92866.00;0.31;161.26;;;;;6.30;1.00;;;;;;2263158;61;988;-87
2021/03/05 08:47:43;470110.00;1.57;810.38;87640.00;0.29;152.23;;;;;6.70;1.00;;;;;;2272475;61;1087;-86
2021/03/05 08:50:13;457924.00;1.53;789.41;97038.00;0.32;168.46;;;;;6.40;1.00;;;;;;2276269;61;1283;-85
2021/03/05 08:52:41;217042.00;0.72;375.25;84864.00;0.28;147.44;;;;;6.20;1.00;;;;;;2276165;61;1128;-88
2021/03/05 08:55:08;177383.00;0.59;306.98;83775.00;0.28;145.56;;;;;6.20;1.00;;;;;;2272460;61;1923;-86
2021/03/05 08:57:46;243591.00;0.81;420.93;88327.00;0.29;153.42;;;;;6.30;1.00;;;;;;2272463;61;946;-88
2021/03/05 09:00:18;261542.00;0.87;451.80;88155.00;0.29;153.12;;;;;6.60;1.00;;;;;;2272444;61;1429;-88
2021/03/05 09:02:47;338845.00;1.13;584.69;96445.00;0.32;167.44;;;;;6.40;1.00;;;;;;2276271;61;1023;-87
2021/03/05 09:05:25;307394.00;1.02;530.63;87281.00;0.29;151.61;;;;;6.40;1.00;;;;;;2272510;61;979;-87
2021/03/05 09:07:52;593567.00;1.98;1023.11;1478.00;0.00;3.18;;;;;6.80;1.00;;;;;;2271623;61;1337;-87
2021/03/05 09:10:21;260107.00;0.87;449.33;0.00;0.00;0.62;;;;;6.60;1.00;;;;;;2265065;61;995;-87
2021/03/05 09:12:56;446407.00;1.49;769.60;0.00;0.00;0.62;;;;;6.70;1.00;;;;;;2265036;61;1080;-87
2021/03/05 09:15:27;291507.00;0.97;503.32;0.00;0.00;0.62;;;;;6.30;1.00;;;;;;2259471;61;1920;-86
2021/03/05 09:17:53;234235.00;0.78;404.83;0.00;0.00;0.62;;;;;6.50;1.00;;;;;;2256238;61;1431;-88
2021/03/05 09:20:21;186509.00;0.62;322.70;0.00;0.00;0.62;;;;;6.80;1.00;;;;;;2255509;61;988;-88
2021/03/05 09:22:47;287214.00;0.96;495.94;0.00;0.00;0.62;;;;;7.20;1.00;;;;;;2255513;61;1066;-86
2021/03/05 09:25:15;385013.00;1.28;664.04;88700.00;0.30;154.06;;;;;6.80;1.00;;;;;;2256402;61;1018;-87
2021/03/05 09:27:42;463274.00;1.54;798.62;95092.00;0.32;165.10;;;;;6.80;1.00;;;;;;2247585;61;985;-86
2021/03/05 09:30:17;283843.00;0.95;490.14;83391.00;0.28;144.89;;;;;7.20;1.00;;;;;;2247551;61;1426;-86
2021/03/05 09:32:49;336923.00;1.12;581.39;67667.00;0.23;117.73;;;;;7.10;1.00;;;;;;2249878;61;1029;-86
2021/03/05 09:35:15;450429.00;1.50;776.52;89348.00;0.30;155.18;;;;;7.10;1.00;;;;;;2256159;61;1920;-87
2021/03/05 09:37:43;548994.00;1.83;946.23;80638.00;0.27;140.14;;;;;6.90;1.00;;;;;;2254623;61;986;-86
2021/03/05 09:40:10;305928.00;1.02;528.11;83844.00;0.28;145.68;;;;;7.00;1.00;;;;;;2264168;61;1344;-86
2021/03/05 09:42:47;268085.00;0.89;463.05;119729.00;0.40;207.61;;;;;7.10;1.00;;;;;;2261744;61;976;-87
2021/03/05 09:45:32;33747.00;0.11;59.07;0.00;0.00;0.62;;;;;7.20;1.00;;;;;;2270789;61;1023;-87
2021/03/05 09:47:59;245411.00;0.82;424.06;83169.00;0.28;144.51;;;;;7.30;1.00;;;;;;2272168;61;1408;-87
2021/03/05 09:50:26;463475.00;1.54;798.96;82092.00;0.27;142.65;;;;;7.30;1.00;;;;;;2272292;61;1058;-87
2021/03/05 09:52:54;347789.00;1.16;600.06;135508.00;0.45;234.83;;;;;7.30;1.00;;;;;;2265556;61;1003;-88
2021/03/05 09:55:24;311070.00;1.04;536.95;96118.00;0.32;166.87;;;;;7.30;1.00;;;;;;2268801;61;1994;-88
2021/03/05 09:57:51;42889.00;0.14;74.89;0.00;0.00;0.62;;;;;7.40;1.00;;;;;;2265602;61;1462;-87
2021/03/05 10:00:30;33901.00;0.11;59.33;0.00;0.00;0.62;;;;;7.30;1.00;;;;;;2268149;61;959;-87
2021/03/05 10:03:05;299844.00;1.00;517.65;92898.00;0.31;161.31;;;;;7.60;1.00;;;;;;2261576;61;972;-88
2021/03/05 10:05:32;282117.00;0.94;487.18;84982.00;0.28;147.64;;;;;7.90;1.00;;;;;;2269491;61;1039;-87
2021/03/05 10:07:59;168981.00;0.56;292.51;88006.00;0.29;152.86;;;;;7.90;1.00;;;;;;2272229;61;1421;-87